createdAt,value
2022-09-07T00:01:25.812Z,16.05
2022-09-07T00:03:57.438Z,16.00
2022-09-07T00:06:24.628Z,16.06
2022-09-07T00:08:51.299Z,16.04
2022-09-07T00:11:21.025Z,16.09
2022-09-07T00:13:48.390Z,15.93
2022-09-07T00:18:55.449Z,16.09
2022-09-07T00:21:22.041Z,16.08
2022-09-07T00:23:49.903Z,16.11
2022-09-07T00:26:20.418Z,16.12
2022-09-07T00:28:47.807Z,16.14
2022-09-07T00:31:17.667Z,16.14
2022-09-07T00:33:44.788Z,16.14
2022-09-07T00:36:11.701Z,16.13
2022-09-07T00:38:38.604Z,16.11
2022-09-07T00:41:05.905Z,16.08
2022-09-07T00:43:39.011Z,16.06
2022-09-07T00:46:10.730Z,16.05
2022-09-07T00:48:45.178Z,16.05
2022-09-07T00:51:18.500Z,16.03
2022-09-07T00:53:53.809Z,16.01
2022-09-07T00:56:24.046Z,16.02
2022-09-07T00:58:51.654Z,16.01
2022-09-07T01:01:18.649Z,15.98
2022-09-07T01:03:48.925Z,15.99
2022-09-07T01:06:26.815Z,15.94
2022-09-07T01:08:56.528Z,15.96
2022-09-07T01:11:23.883Z,15.94
2022-09-07T01:13:51.874Z,15.94
2022-09-07T01:16:49.488Z,15.89
2022-09-07T01:19:55.842Z,15.82
2022-09-07T01:30:56.103Z,16.11
2022-09-07T01:39:04.497Z,15.75
2022-09-07T01:41:42.327Z,15.69
2022-09-07T01:47:02.752Z,15.63
2022-09-07T01:49:52.852Z,15.54
2022-09-07T01:52:44.276Z,15.58
2022-09-07T01:55:19.314Z,15.50
2022-09-07T01:57:53.978Z,15.54
2022-09-07T02:00:26.086Z,15.54
2022-09-07T02:03:00.183Z,15.56
2022-09-07T02:05:34.297Z,15.58
2022-09-07T02:08:08.861Z,15.63
2022-09-07T02:10:40.550Z,15.68
2022-09-07T02:13:16.313Z,15.67
2022-09-07T02:18:33.214Z,15.73
2022-09-07T02:21:02.722Z,15.72
2022-09-07T02:23:35.189Z,15.75
2022-09-07T02:26:07.021Z,15.74
2022-09-07T02:28:35.437Z,15.66
2022-09-07T02:31:02.268Z,15.68
2022-09-07T02:33:29.445Z,15.67
2022-09-07T02:35:56.544Z,15.70
2022-09-07T02:38:24.645Z,15.72
2022-09-07T02:40:54.577Z,15.71
2022-09-07T02:43:23.242Z,15.72
2022-09-07T02:46:23.509Z,15.65
2022-09-07T02:49:03.609Z,15.66
2022-09-07T02:57:37.784Z,15.58
2022-09-07T03:05:23.813Z,15.63
2022-09-07T03:08:14.732Z,15.62
2022-09-07T03:10:41.676Z,15.58
2022-09-07T03:13:08.241Z,15.62
2022-09-07T03:15:34.973Z,15.63
2022-09-07T03:18:01.559Z,15.61
2022-09-07T03:20:28.131Z,15.60
2022-09-07T03:22:54.717Z,15.65
2022-09-07T03:25:22.850Z,15.63
2022-09-07T03:27:49.408Z,15.65
2022-09-07T03:30:16.124Z,15.66
2022-09-07T03:32:42.674Z,15.68
2022-09-07T03:35:09.534Z,15.67
2022-09-07T03:37:37.096Z,15.68
2022-09-07T03:40:06.659Z,15.70
2022-09-07T03:42:33.558Z,15.66
2022-09-07T03:45:00.143Z,15.70
2022-09-07T03:47:26.794Z,15.69
2022-09-07T03:49:53.384Z,15.70
2022-09-07T03:52:19.979Z,15.70
2022-09-07T03:54:46.578Z,15.68
2022-09-07T03:57:13.460Z,15.68
2022-09-07T03:59:40.125Z,15.71
2022-09-07T04:02:06.840Z,15.75
2022-09-07T04:04:33.768Z,15.77
2022-09-07T04:07:00.315Z,15.81
2022-09-07T04:09:26.885Z,15.80
2022-09-07T04:11:53.465Z,15.86
2022-09-07T04:14:20.206Z,15.87
2022-09-07T04:16:47.048Z,15.90
2022-09-07T04:19:14.219Z,15.90
2022-09-07T04:21:40.947Z,15.89
2022-09-07T04:24:07.549Z,15.91
2022-09-07T04:26:36.303Z,15.89
2022-09-07T04:29:03.446Z,15.89
2022-09-07T04:31:30.561Z,15.88
2022-09-07T04:33:57.242Z,15.89
2022-09-07T04:36:25.268Z,15.89
2022-09-07T04:38:56.883Z,15.90
2022-09-07T04:41:23.843Z,15.91
2022-09-07T04:43:54.951Z,15.95
2022-09-07T04:49:00.480Z,15.98
2022-09-07T04:51:29.592Z,15.96
2022-09-07T04:53:58.104Z,16.00
2022-09-07T04:56:24.715Z,15.99
2022-09-07T04:58:51.804Z,16.00
2022-09-07T05:01:21.762Z,16.03
2022-09-07T05:03:48.945Z,16.01
2022-09-07T05:06:17.599Z,16.04
2022-09-07T05:08:47.569Z,16.00
2022-09-07T05:11:15.768Z,16.01
2022-09-07T05:13:42.690Z,16.07
2022-09-07T05:16:13.317Z,16.10
2022-09-07T05:18:39.940Z,16.07
2022-09-07T05:21:16.611Z,16.08
2022-09-07T05:23:43.966Z,16.10
2022-09-07T05:26:12.012Z,16.12
2022-09-07T05:28:39.276Z,16.16
2022-09-07T05:31:17.603Z,16.17
2022-09-07T05:36:35.739Z,16.18
2022-09-07T05:39:02.472Z,16.18
2022-09-07T05:41:29.100Z,16.21
2022-09-07T05:46:42.831Z,16.18
2022-09-07T05:49:10.020Z,16.15
2022-09-07T05:51:37.292Z,16.16
2022-09-07T05:54:04.321Z,16.17
2022-09-07T05:56:34.632Z,16.19
2022-09-07T05:59:01.199Z,16.21
2022-09-07T06:01:28.165Z,16.25
2022-09-07T06:03:54.754Z,16.27
2022-09-07T06:06:21.666Z,16.30
2022-09-07T06:08:51.077Z,16.30
2022-09-07T06:11:20.305Z,16.30
2022-09-07T06:13:47.257Z,16.22
2022-09-07T06:16:15.193Z,16.29
2022-09-07T06:18:44.352Z,16.30
2022-09-07T06:21:15.381Z,16.32
2022-09-07T06:23:43.562Z,16.31
2022-09-07T06:26:11.067Z,16.30
2022-09-07T06:28:40.696Z,16.29
2022-09-07T06:31:10.338Z,16.30
2022-09-07T06:33:37.109Z,16.33
2022-09-07T06:36:05.811Z,16.35
2022-09-07T06:38:34.672Z,16.39
2022-09-07T06:43:51.539Z,16.47
2022-09-07T06:49:04.921Z,16.55
2022-09-07T06:51:32.251Z,16.57
2022-09-07T06:56:48.437Z,16.63
2022-09-07T06:59:15.051Z,16.71
2022-09-07T07:01:41.602Z,16.91
2022-09-07T07:04:08.209Z,17.41
2022-09-07T07:06:36.467Z,17.99
2022-09-07T07:09:05.335Z,18.67
2022-09-07T07:11:31.953Z,19.37
2022-09-07T07:13:58.655Z,20.02
2022-09-07T07:16:25.440Z,20.63
2022-09-07T07:18:55.967Z,21.06
2022-09-07T07:21:23.228Z,21.39
2022-09-07T07:23:51.724Z,21.80
2022-09-07T07:26:20.975Z,22.20
2022-09-07T07:29:05.509Z,22.62
2022-09-07T07:31:33.743Z,23.09
2022-09-07T07:34:00.415Z,23.49
2022-09-07T07:36:28.240Z,23.84
2022-09-07T07:44:13.982Z,23.95
2022-09-07T07:46:40.643Z,23.87
2022-09-07T07:49:07.472Z,23.98
2022-09-07T07:52:49.959Z,24.09
2022-09-07T07:54:20.684Z,24.25
2022-09-07T07:56:47.344Z,24.42
2022-09-07T07:59:15.930Z,24.57
2022-09-07T08:01:43.913Z,24.94
2022-09-07T08:04:10.546Z,25.31
2022-09-07T08:06:37.825Z,25.70
2022-09-07T08:09:04.341Z,25.81
2022-09-07T08:11:31.659Z,25.99
2022-09-07T08:14:00.332Z,26.35
2022-09-07T08:16:26.984Z,26.24
2022-09-07T08:18:53.785Z,25.80
2022-09-07T08:21:20.405Z,25.24
2022-09-07T08:23:46.973Z,24.53
2022-09-07T08:26:13.528Z,23.94
2022-09-07T08:28:41.963Z,23.52
2022-09-07T08:31:11.991Z,23.32
2022-09-07T08:33:39.362Z,23.21
2022-09-07T08:36:08.327Z,22.99
2022-09-07T08:38:36.316Z,22.94
2022-09-07T08:41:21.352Z,22.85
2022-09-07T08:49:18.860Z,24.54
2022-09-07T08:54:22.549Z,24.35
2022-09-07T09:02:38.467Z,24.05
2022-09-07T09:05:21.231Z,23.90
2022-09-07T09:07:59.384Z,24.12
2022-09-07T09:10:36.594Z,24.38
2022-09-07T09:21:19.587Z,25.62
2022-09-07T09:23:48.914Z,25.26
2022-09-07T09:26:24.438Z,24.93
2022-09-07T09:28:51.313Z,24.98
2022-09-07T09:31:36.107Z,25.25
2022-09-07T09:36:43.927Z,25.93
2022-09-07T09:39:32.000Z,26.44
2022-09-07T09:42:14.377Z,26.68
2022-09-07T09:44:41.421Z,27.00
2022-09-07T09:47:30.704Z,27.12
2022-09-07T09:50:01.368Z,27.32
2022-09-07T09:52:34.768Z,27.64
2022-09-07T09:55:32.723Z,27.94
2022-09-07T10:04:00.482Z,28.93
2022-09-07T10:06:29.371Z,28.94
2022-09-07T10:08:58.662Z,28.96
2022-09-07T10:14:42.232Z,28.89
2022-09-07T10:17:27.523Z,28.78
2022-09-07T10:19:59.438Z,28.59
2022-09-07T10:22:47.521Z,28.46
2022-09-07T10:31:27.678Z,28.30
2022-09-07T10:55:30.489Z,27.01
2022-09-07T11:00:50.984Z,26.61
2022-09-07T11:14:12.899Z,27.18
2022-09-07T11:16:50.972Z,27.27
2022-09-07T11:19:36.962Z,27.25
2022-09-07T11:27:41.720Z,26.68
2022-09-07T11:30:18.659Z,26.34
2022-09-07T11:32:55.779Z,26.34
2022-09-07T11:35:52.288Z,26.21
2022-09-07T11:41:10.761Z,26.28
2022-09-07T11:44:01.715Z,26.07
2022-09-07T11:49:12.265Z,25.85
2022-09-07T11:51:46.607Z,25.83
2022-09-07T11:54:36.765Z,25.66
2022-09-07T13:31:14.033Z,24.02
2022-09-07T13:36:39.026Z,23.65
2022-09-07T13:39:09.622Z,23.51
2022-09-07T13:41:42.953Z,23.19
2022-09-07T13:44:23.687Z,22.99
2022-09-07T13:52:15.787Z,22.69
2022-09-07T13:54:58.645Z,22.78
2022-09-07T14:10:48.691Z,23.20
2022-09-07T14:13:15.286Z,23.21
2022-09-07T14:15:44.750Z,23.29
2022-09-07T14:18:29.047Z,23.36
2022-09-07T14:20:56.402Z,23.38
2022-09-07T14:23:29.850Z,23.38
2022-09-07T14:26:18.242Z,23.34
2022-09-07T14:28:46.561Z,23.23
2022-09-07T14:31:16.332Z,23.39
2022-09-07T14:33:50.271Z,23.45
2022-09-07T14:36:41.647Z,23.43
2022-09-07T14:39:06.910Z,23.39
2022-09-07T14:41:38.448Z,23.32
2022-09-07T14:44:05.087Z,23.30
2022-09-07T14:46:34.299Z,23.34
2022-09-07T14:49:04.984Z,23.27
2022-09-07T14:51:36.484Z,23.16
2022-09-07T14:54:07.377Z,23.07
2022-09-07T14:56:37.275Z,23.01
2022-09-07T14:59:43.668Z,22.87
2022-09-07T15:04:47.519Z,22.87
2022-09-07T15:07:45.736Z,22.79
2022-09-07T15:10:14.142Z,22.73
2022-09-07T15:12:44.044Z,22.68
2022-09-07T15:15:25.105Z,22.67
2022-09-07T15:17:54.554Z,22.71
2022-09-07T15:20:43.249Z,22.73
2022-09-07T15:23:15.952Z,22.89
2022-09-07T15:25:49.643Z,23.00
2022-09-07T15:34:11.365Z,23.00
2022-09-07T15:36:40.595Z,22.93
2022-09-07T15:39:08.175Z,22.77
2022-09-07T15:41:34.829Z,22.78
2022-09-07T15:44:01.529Z,22.77
2022-09-07T15:46:28.066Z,22.69
2022-09-07T15:48:56.015Z,22.63
2022-09-07T15:54:13.252Z,22.51
2022-09-07T15:56:41.463Z,22.44
2022-09-07T15:59:11.182Z,22.42
2022-09-07T16:01:55.286Z,22.37
2022-09-07T16:04:24.103Z,22.38
2022-09-07T16:06:50.823Z,22.44
2022-09-07T16:09:17.862Z,22.49
2022-09-07T16:11:50.034Z,22.51
2022-09-07T16:14:17.672Z,22.48
2022-09-07T16:19:34.633Z,22.47
2022-09-07T16:22:01.910Z,22.47
2022-09-07T16:24:28.637Z,22.46
2022-09-07T16:26:55.507Z,22.41
2022-09-07T16:29:22.063Z,22.38
2022-09-07T16:34:35.329Z,22.28
2022-09-07T16:37:02.001Z,22.28
2022-09-07T16:39:29.231Z,22.27
2022-09-07T16:41:55.987Z,22.24
2022-09-07T16:44:22.637Z,22.17
2022-09-07T16:46:50.447Z,22.07
2022-09-07T16:49:17.745Z,21.97
2022-09-07T16:51:45.790Z,21.83
2022-09-07T16:54:13.697Z,21.64
2022-09-07T16:56:40.220Z,21.50
2022-09-07T16:59:09.686Z,21.30
2022-09-07T17:01:37.937Z,20.90
2022-09-07T17:04:10.425Z,20.90
2022-09-07T17:09:04.543Z,20.77
2022-09-07T17:11:34.148Z,20.67
2022-09-07T17:14:01.257Z,20.57
2022-09-07T17:21:53.690Z,20.59
2022-09-07T17:24:20.688Z,20.65
2022-09-07T17:26:47.257Z,20.68
2022-09-07T17:29:13.811Z,20.71
2022-09-07T17:34:28.381Z,20.70
2022-09-07T17:36:55.723Z,20.68
2022-09-07T17:39:22.255Z,20.66
2022-09-07T17:41:52.718Z,20.60
2022-09-07T17:44:19.432Z,20.50
2022-09-07T17:46:46.000Z,20.42
2022-09-07T17:49:14.533Z,20.35
2022-09-07T17:51:41.399Z,20.27
2022-09-07T17:54:11.987Z,20.22
2022-09-07T17:56:40.134Z,20.17
2022-09-07T18:01:54.286Z,20.11
2022-09-07T18:04:21.644Z,20.09
2022-09-07T18:06:48.420Z,20.04
2022-09-07T18:09:15.040Z,20.00
2022-09-07T18:11:45.512Z,19.95
2022-09-07T18:14:14.462Z,19.93
2022-09-07T18:16:41.827Z,19.91
2022-09-07T18:19:08.713Z,19.90
2022-09-07T18:21:37.831Z,19.85
2022-09-07T18:24:08.251Z,19.75
2022-09-07T18:26:39.058Z,19.67
2022-09-07T18:29:18.793Z,19.61
2022-09-07T18:31:53.684Z,19.56
2022-09-07T18:34:20.672Z,19.52
2022-09-07T18:36:47.427Z,19.48
2022-09-07T18:39:14.064Z,19.43
2022-09-07T18:41:40.867Z,19.38
2022-09-07T18:45:27.019Z,19.33
2022-09-07T18:46:54.638Z,19.24
2022-09-07T18:49:21.157Z,19.18
2022-09-07T18:54:34.269Z,19.04
2022-09-07T18:57:00.791Z,18.99
2022-09-07T18:59:27.362Z,18.96
2022-09-07T19:01:54.479Z,18.87
2022-09-07T19:04:22.524Z,18.79
2022-09-07T19:06:49.297Z,18.70
2022-09-07T19:09:15.800Z,18.64
2022-09-07T19:11:42.574Z,18.57
2022-09-07T19:14:09.249Z,18.55
2022-09-07T19:16:36.365Z,18.50
2022-09-07T19:19:06.304Z,18.46
2022-09-07T19:21:35.948Z,18.42
2022-09-07T19:24:04.173Z,18.16
2022-09-07T19:26:35.448Z,18.28
2022-09-07T19:29:04.621Z,18.22
2022-09-07T19:31:31.609Z,18.15
2022-09-07T19:34:00.161Z,18.11
2022-09-07T19:36:30.170Z,18.09
2022-09-07T19:38:56.725Z,18.09
2022-09-07T19:41:23.502Z,18.10
2022-09-07T19:43:50.490Z,18.09
2022-09-07T19:46:22.719Z,18.09
2022-09-07T19:48:52.130Z,18.06
2022-09-07T19:51:19.898Z,18.06
2022-09-07T19:53:47.448Z,18.04
2022-09-07T19:56:16.905Z,18.04
2022-09-07T19:58:44.825Z,18.03
2022-09-07T20:01:16.168Z,17.98
2022-09-07T20:03:43.968Z,17.95
2022-09-07T20:06:14.677Z,17.90
2022-09-07T20:08:42.769Z,17.86
2022-09-07T20:11:11.945Z,17.84
2022-09-07T20:13:39.801Z,17.83
2022-09-07T20:16:09.439Z,17.84
2022-09-07T20:18:36.206Z,17.61
2022-09-07T20:21:05.096Z,17.76
2022-09-07T20:23:32.185Z,17.76
2022-09-07T20:26:00.808Z,17.72
2022-09-07T20:28:28.000Z,17.69
2022-09-07T20:30:54.716Z,17.66
2022-09-07T20:33:21.747Z,17.63
2022-09-07T20:35:49.209Z,17.61
2022-09-07T20:38:17.684Z,17.59
2022-09-07T20:40:53.827Z,17.52
2022-09-07T20:43:21.012Z,17.32
2022-09-07T20:45:47.769Z,17.46
2022-09-07T20:48:14.610Z,17.45
2022-09-07T20:50:41.373Z,17.42
2022-09-07T20:53:08.475Z,17.36
2022-09-07T20:55:36.007Z,17.32
2022-09-07T20:58:03.136Z,17.31
2022-09-07T21:00:29.767Z,17.30
2022-09-07T21:02:56.504Z,17.27
2022-09-07T21:05:23.060Z,17.24
2022-09-07T21:07:49.610Z,17.19
2022-09-07T21:10:16.211Z,17.17
2022-09-07T21:12:42.829Z,17.15
2022-09-07T21:15:09.864Z,17.13
2022-09-07T21:17:36.455Z,17.13
2022-09-07T21:20:03.191Z,17.12
2022-09-07T21:22:30.948Z,17.11
2022-09-07T21:24:57.701Z,17.11
2022-09-07T21:27:24.248Z,17.11
2022-09-07T21:29:51.179Z,17.11
2022-09-07T21:32:17.690Z,17.11
2022-09-07T21:34:44.192Z,17.12
2022-09-07T21:37:10.764Z,17.12
2022-09-07T21:39:37.341Z,17.12
2022-09-07T21:42:04.495Z,17.11
2022-09-07T21:44:31.017Z,17.07
2022-09-07T21:46:57.641Z,17.02
2022-09-07T21:49:24.216Z,16.95
2022-09-07T21:51:50.721Z,16.91
2022-09-07T21:54:17.249Z,16.84
2022-09-07T21:56:46.652Z,16.78
2022-09-07T21:59:13.908Z,16.77
2022-09-07T22:01:40.969Z,16.76
2022-09-07T22:04:07.628Z,16.75
2022-09-07T22:06:34.624Z,16.75
2022-09-07T22:09:01.918Z,16.74
2022-09-07T22:11:29.800Z,16.70
2022-09-07T22:13:58.870Z,16.70
2022-09-07T22:16:25.485Z,16.68
2022-09-07T22:18:52.567Z,16.68
2022-09-07T22:21:24.008Z,16.64
2022-09-07T22:23:54.364Z,16.65
2022-09-07T22:26:23.855Z,16.64
2022-09-07T22:28:50.921Z,16.63
2022-09-07T22:33:56.815Z,17.03
2022-09-07T22:36:27.956Z,16.76
2022-09-07T22:38:56.390Z,16.74
2022-09-07T22:41:26.404Z,16.72
2022-09-07T22:43:53.101Z,16.70
2022-09-07T22:46:21.270Z,16.71
2022-09-07T22:48:48.772Z,16.69
2022-09-07T22:51:16.236Z,16.67
2022-09-07T22:53:43.574Z,16.68
2022-09-07T22:56:16.749Z,16.66
2022-09-07T22:58:48.287Z,16.67
2022-09-07T23:01:15.487Z,16.69
2022-09-07T23:03:43.841Z,16.72
2022-09-07T23:06:50.294Z,16.65
2022-09-07T23:14:30.996Z,16.65
2022-09-07T23:16:57.528Z,16.65
2022-09-07T23:19:24.073Z,16.64
2022-09-07T23:21:50.642Z,16.65
2022-09-07T23:24:18.833Z,16.64
2022-09-07T23:26:46.927Z,16.64
2022-09-07T23:29:14.700Z,16.64
2022-09-07T23:31:41.583Z,16.64
2022-09-07T23:34:08.436Z,16.64
2022-09-07T23:36:35.008Z,16.62
2022-09-07T23:39:01.715Z,16.61
2022-09-07T23:41:28.871Z,16.62
2022-09-07T23:43:55.823Z,16.62
2022-09-07T23:46:23.000Z,16.60
2022-09-07T23:48:50.307Z,16.61
2022-09-07T23:51:22.789Z,16.60
2022-09-07T23:53:51.155Z,16.60
2022-09-07T23:56:17.695Z,16.59
2022-09-07T23:58:44.240Z,16.59
